Time;durP1;ratioP1;P1;durP2;ratioP2;P2;SDS_P1;SDS_P2;PMS_P1;PMS_P2;Temp;Humidity;BMP_temperature;BMP_pressure;BME280_temperature;BME280_humidity;BME280_pressure;Samples;Min_cycle;Max_cycle;Signal;HPM_P1;HPM_P2
2022/11/08 00:02:35;;;;;;;2.53;2.33;;;11.50;99.90;;;11.79;nan;100526.44;4971119;28;20646;-66
2022/11/08 00:16:04;;;;;;;3.67;2.37;;;11.30;99.90;;;11.52;nan;100508.50;4971218;28;20632;-66
2022/11/08 00:18:31;;;;;;;4.97;2.47;;;11.30;99.90;;;11.49;nan;100514.78;4979976;28;20639;-65
2022/11/08 00:21:02;;;;;;;2.40;1.90;;;11.30;99.90;;;11.57;nan;100519.41;4985386;28;20662;-65
2022/11/08 00:23:29;;;;;;;3.70;1.90;;;11.30;99.90;;;11.44;nan;100516.06;4983220;28;20647;-65
2022/11/08 00:25:56;;;;;;;2.57;1.90;;;11.30;99.90;;;11.56;nan;100512.53;4977278;28;20639;-66
2022/11/08 00:28:23;;;;;;;2.57;2.17;;;11.30;99.90;;;11.56;nan;100500.28;4968401;28;20631;-66
2022/11/08 00:30:50;;;;;;;7.60;3.00;;;11.30;99.90;;;11.53;nan;100497.91;4970825;28;20740;-66
2022/11/08 00:33:17;;;;;;;3.37;2.67;;;11.30;99.90;;;11.49;nan;100499.09;4957799;28;20706;-66
2022/11/08 00:35:43;;;;;;;4.07;3.10;;;11.30;99.90;;;11.49;nan;100500.88;4966705;28;20993;-65
2022/11/08 00:38:10;;;;;;;9.80;3.10;;;11.30;99.90;;;11.45;nan;100496.84;4954517;28;20663;-66
2022/11/08 00:40:37;;;;;;;7.20;3.40;;;11.30;99.90;;;11.44;nan;100493.41;4971393;28;21081;-66
2022/11/08 00:43:04;;;;;;;7.80;3.10;;;11.30;99.90;;;11.39;nan;100497.31;4977760;28;20635;-66
2022/11/08 00:45:31;;;;;;;3.10;2.27;;;11.20;99.90;;;11.30;nan;100504.09;4959773;28;21016;-65
2022/11/08 00:47:58;;;;;;;4.17;3.00;;;11.20;99.90;;;11.26;nan;100502.66;4977467;28;20635;-65
2022/11/08 00:50:25;;;;;;;6.43;3.30;;;11.10;99.90;;;11.43;nan;100501.38;4976630;28;21312;-65
2022/11/08 00:52:52;;;;;;;4.83;3.43;;;11.20;99.90;;;11.29;nan;100494.56;4982380;28;20638;-65
2022/11/08 00:55:19;;;;;;;4.57;3.27;;;11.10;99.90;;;11.40;nan;100491.97;4959059;28;20653;-65
2022/11/08 00:57:46;;;;;;;5.00;2.80;;;11.20;99.90;;;11.37;nan;100484.38;4974272;28;21052;-67
2022/11/08 01:00:25;;;;;;;3.70;2.93;;;11.10;99.90;;;11.41;nan;100488.44;4993601;28;21221;-66
2022/11/08 01:03:17;;;;;;;4.50;2.73;;;11.10;99.90;;;11.33;nan;100488.16;4978673;28;20742;-66
2022/11/08 01:05:39;;;;;;;4.50;2.97;;;11.10;99.90;;;11.32;nan;100489.13;4976834;28;20643;-66
2022/11/08 01:08:06;;;;;;;2.83;2.60;;;11.20;99.90;;;11.35;nan;100483.66;4977879;28;20643;-67
2022/11/08 01:10:33;;;;;;;3.40;3.10;;;11.10;99.90;;;11.20;nan;100494.47;4976482;28;20707;-66
2022/11/08 01:13:00;;;;;;;3.30;2.80;;;11.10;99.90;;;11.22;nan;100489.97;4976108;28;21038;-66
2022/11/08 01:15:28;;;;;;;3.00;2.50;;;11.10;99.90;;;11.24;nan;100485.44;4976883;28;20646;-66
2022/11/08 01:17:55;;;;;;;5.83;2.03;;;11.10;99.90;;;11.31;nan;100492.69;4976095;28;20627;-66
2022/11/08 01:20:22;;;;;;;4.13;2.43;;;11.10;99.90;;;11.20;nan;100477.00;4977159;28;20729;-66
2022/11/08 01:22:48;;;;;;;5.67;2.17;;;11.00;99.90;;;11.14;nan;100479.28;4983530;28;20630;-66
2022/11/08 01:25:15;;;;;;;1.90;1.80;;;11.00;99.90;;;11.17;nan;100476.41;4981863;28;20646;-65
2022/11/08 01:27:42;;;;;;;2.80;1.80;;;11.00;99.90;;;11.11;nan;100472.50;4976108;28;20631;-66
2022/11/08 01:30:10;;;;;;;1.47;1.37;;;11.00;99.90;;;11.09;nan;100470.94;4974620;28;21101;-66
2022/11/08 01:32:37;;;;;;;2.20;1.57;;;10.90;99.90;;;11.15;nan;100465.25;4968641;28;21261;-66
2022/11/08 01:35:04;;;;;;;1.50;1.40;;;10.90;99.90;;;11.19;nan;100466.69;4976616;28;20637;-66
2022/11/08 01:37:31;;;;;;;1.83;1.73;;;10.90;99.90;;;11.25;nan;100455.75;4978252;28;20642;-65
2022/11/08 01:39:58;;;;;;;1.33;1.23;;;11.00;99.90;;;11.18;nan;100458.00;4976525;28;20717;-66
2022/11/08 01:42:30;;;;;;;1.23;1.20;;;11.00;99.90;;;11.15;nan;100460.88;4973519;28;20627;-68
2022/11/08 01:45:10;;;;;;;2.73;1.17;;;10.90;99.90;;;10.98;nan;100455.28;4976564;28;20643;-66
2022/11/08 01:47:37;;;;;;;1.47;1.47;;;10.90;99.90;;;11.15;nan;100452.19;4987151;28;20658;-66
2022/11/08 01:50:15;;;;;;;3.03;2.13;;;10.90;99.90;;;11.17;nan;100453.75;4975094;28;20706;-65
2022/11/08 01:52:47;;;;;;;2.83;2.00;;;10.90;99.90;;;10.97;nan;100451.81;4957253;28;21167;-65
2022/11/08 01:55:29;;;;;;;4.17;2.50;;;10.90;99.90;;;10.99;nan;100446.50;4957279;28;20636;-65
2022/11/08 01:58:18;;;;;;;3.60;2.20;;;10.80;99.90;;;10.92;nan;100440.91;4956238;28;20690;-66
2022/11/08 02:00:45;;;;;;;2.50;1.90;;;10.80;99.90;;;11.00;nan;100433.31;4966485;28;20666;-66
2022/11/08 02:03:17;;;;;;;2.93;2.40;;;10.80;99.90;;;10.98;nan;100437.00;4956409;28;20639;-65
2022/11/08 02:05:45;;;;;;;4.73;2.27;;;10.80;99.90;;;10.86;nan;100436.16;4956213;28;20645;-65
2022/11/08 02:08:41;;;;;;;3.40;2.53;;;10.70;99.90;;;10.80;nan;100434.00;4973377;28;20686;-66
2022/11/08 02:11:15;;;;;;;2.73;1.93;;;10.70;99.90;;;10.90;nan;100424.53;4956256;28;20681;-66
2022/11/08 02:13:42;;;;;;;2.90;1.80;;;10.70;99.90;;;10.96;nan;100428.44;4957351;28;20627;-65
2022/11/08 02:16:14;;;;;;;1.43;1.37;;;10.70;99.90;;;10.89;nan;100430.69;4974727;28;20635;-66
2022/11/08 02:18:44;;;;;;;3.53;1.90;;;10.70;99.90;;;10.86;nan;100431.75;4987511;28;21030;-67
2022/11/08 02:21:30;;;;;;;1.77;1.67;;;10.70;99.90;;;10.92;nan;100431.28;4955579;28;20657;-66
2022/11/08 02:24:06;;;;;;;1.50;1.40;;;10.70;99.90;;;10.68;nan;100425.34;4973460;28;21185;-66
2022/11/08 02:26:35;;;;;;;1.43;1.27;;;10.60;99.90;;;10.64;nan;100421.31;4956398;28;21203;-66
2022/11/08 02:29:31;;;;;;;1.70;1.60;;;10.50;99.90;;;10.63;nan;100413.56;4972988;28;21249;-66
2022/11/08 02:32:00;;;;;;;1.60;1.57;;;10.50;99.90;;;10.65;nan;100409.91;4972617;28;21202;-66
2022/11/08 02:34:36;;;;;;;2.23;1.73;;;10.50;99.90;;;10.53;nan;100415.22;4972031;28;20689;-66
2022/11/08 02:37:04;;;;;;;1.63;1.53;;;10.40;99.90;;;10.61;nan;100424.13;4973546;28;20639;-64
2022/11/08 02:39:33;;;;;;;1.87;1.77;;;10.40;99.90;;;10.53;nan;100416.06;4972594;28;20725;-66
2022/11/08 02:42:01;;;;;;;1.50;1.50;;;10.40;99.90;;;10.53;nan;100421.25;4973251;28;20697;-65
2022/11/08 02:44:28;;;;;;;3.13;2.27;;;10.40;99.90;;;10.40;nan;100415.31;4973510;28;20663;-66
2022/11/08 02:46:55;;;;;;;2.90;1.47;;;10.40;99.90;;;10.51;nan;100411.88;4971928;28;20700;-65
2022/11/08 02:49:22;;;;;;;1.57;1.50;;;10.40;99.90;;;10.39;nan;100412.81;4978151;28;20679;-68
2022/11/08 02:51:52;;;;;;;2.40;1.30;;;10.30;99.90;;;10.30;nan;100409.13;4966607;28;20683;-66
2022/11/08 02:54:19;;;;;;;1.30;1.20;;;10.20;99.90;;;10.26;nan;100404.22;4980918;28;20647;-66
2022/11/08 02:56:46;;;;;;;2.03;1.80;;;10.20;99.90;;;10.31;nan;100405.53;4981197;28;21253;-66
2022/11/08 02:59:14;;;;;;;2.07;1.87;;;10.20;99.90;;;10.28;nan;100402.34;4971208;28;20639;-66
2022/11/08 03:01:41;;;;;;;2.03;1.90;;;10.10;99.90;;;10.32;nan;100394.19;4977204;28;20690;-66
2022/11/08 03:04:08;;;;;;;3.03;1.73;;;10.20;99.90;;;10.28;nan;100390.16;4981974;28;20636;-66
2022/11/08 03:06:35;;;;;;;2.60;1.80;;;10.20;99.90;;;10.30;nan;100398.69;4972422;28;20689;-66
2022/11/08 03:09:02;;;;;;;3.67;2.80;;;10.10;99.90;;;10.28;nan;100399.72;4972268;28;20631;-66
2022/11/08 03:11:29;;;;;;;2.87;2.00;;;10.10;99.90;;;10.35;nan;100393.94;4972140;28;20673;-66
2022/11/08 03:13:56;;;;;;;2.30;2.10;;;10.20;99.90;;;10.19;nan;100400.41;4973701;28;20631;-66
2022/11/08 03:16:23;;;;;;;5.90;2.67;;;10.10;99.90;;;10.25;nan;100392.97;4970943;28;20632;-67
2022/11/08 03:18:50;;;;;;;2.60;2.37;;;10.10;99.90;;;10.21;nan;100386.31;4971556;28;20694;-67
2022/11/08 03:21:17;;;;;;;4.67;2.63;;;10.10;99.90;;;10.22;nan;100389.75;4972157;28;20729;-65
2022/11/08 03:23:44;;;;;;;4.50;3.03;;;10.00;99.90;;;10.23;nan;100387.03;4971863;28;21285;-66
2022/11/08 03:26:11;;;;;;;4.00;3.30;;;10.00;99.90;;;10.33;nan;100390.63;4972286;28;21523;-66
2022/11/08 03:28:38;;;;;;;4.33;3.10;;;10.10;99.90;;;10.41;nan;100390.06;4971788;28;20643;-66
2022/11/08 03:31:06;;;;;;;4.90;2.60;;;10.10;99.90;;;10.26;nan;100388.59;4972141;28;20675;-66
2022/11/08 03:33:33;;;;;;;4.73;2.97;;;10.10;99.90;;;10.22;nan;100381.94;4971865;28;20635;-65
2022/11/08 03:36:00;;;;;;;2.97;2.67;;;10.10;99.90;;;10.32;nan;100365.50;4976192;28;21210;-66
2022/11/08 03:38:27;;;;;;;3.17;2.73;;;10.10;99.90;;;10.27;nan;100377.19;4973878;28;20640;-66
2022/11/08 03:40:54;;;;;;;3.87;2.63;;;10.10;99.90;;;10.40;nan;100373.56;4973050;28;20677;-65
2022/11/08 03:43:20;;;;;;;2.87;2.50;;;10.10;99.90;;;10.13;nan;100371.25;4981596;28;20644;-66
2022/11/08 03:45:47;;;;;;;4.17;2.60;;;10.10;99.90;;;10.29;nan;100363.09;4965235;28;20635;-66
2022/11/08 03:48:14;;;;;;;5.13;2.10;;;10.10;99.90;;;10.23;nan;100363.56;4967851;28;20713;-66
2022/11/08 03:50:42;;;;;;;2.57;2.07;;;10.10;99.90;;;10.24;nan;100357.44;4970263;28;20698;-67
2022/11/08 03:53:09;;;;;;;2.20;1.90;;;10.10;99.90;;;10.30;nan;100356.13;4962346;28;20679;-66
2022/11/08 03:55:36;;;;;;;3.10;2.43;;;10.10;99.90;;;10.14;nan;100351.22;4980921;28;21005;-66
2022/11/08 03:58:03;;;;;;;7.23;1.97;;;10.00;99.90;;;10.08;nan;100356.84;4970902;28;20624;-66
2022/11/08 04:00:29;;;;;;;2.30;2.10;;;10.00;99.90;;;10.03;nan;100353.75;4973580;28;20663;-66
2022/11/08 04:03:02;;;;;;;6.10;2.67;;;10.00;99.90;;;10.11;nan;100343.63;4979919;28;21276;-66
2022/11/08 04:05:31;;;;;;;4.30;3.03;;;9.90;99.90;;;10.21;nan;100342.00;4953296;28;21291;-66
2022/11/08 04:08:00;;;;;;;3.90;2.97;;;10.00;99.90;;;10.05;nan;100342.25;4970831;28;21034;-66
2022/11/08 04:10:27;;;;;;;6.50;3.27;;;9.90;99.90;;;10.04;nan;100347.59;4971172;28;20668;-66
2022/11/08 04:15:44;;;;;;;6.63;2.20;;;9.90;99.90;;;10.10;nan;100340.19;4980326;28;20639;-67
2022/11/08 04:21:18;;;;;;;2.60;1.70;;;9.90;99.90;;;10.10;nan;100340.19;4964294;28;21087;-66
2022/11/08 04:23:46;;;;;;;1.70;1.60;;;10.00;99.90;;;10.15;nan;100342.47;4973651;28;20697;-67
2022/11/08 04:26:14;;;;;;;5.23;1.73;;;9.90;99.90;;;10.12;nan;100333.09;4964912;28;20638;-66
2022/11/08 04:28:41;;;;;;;3.93;2.53;;;10.00;99.90;;;10.07;nan;100331.75;4959405;28;20651;-68
2022/11/08 04:31:17;;;;;;;1.20;1.10;;;10.00;99.90;;;9.87;nan;100329.78;4982727;28;21114;-65
2022/11/08 04:33:44;;;;;;;1.60;1.50;;;9.90;99.90;;;9.92;nan;100330.28;4971735;28;20639;-66
2022/11/08 04:36:15;;;;;;;1.43;1.33;;;9.80;99.90;;;9.88;nan;100339.25;4971977;28;20696;-66
2022/11/08 04:38:46;;;;;;;0.87;0.87;;;9.80;99.90;;;9.96;nan;100348.19;4973539;28;20643;-65
2022/11/08 04:41:15;;;;;;;2.23;1.53;;;9.80;99.90;;;9.87;nan;100341.03;4980557;28;20676;-67
2022/11/08 04:43:42;;;;;;;0.93;0.93;;;9.80;99.90;;;9.75;nan;100339.31;4974363;28;21216;-66
2022/11/08 04:46:12;;;;;;;1.33;1.27;;;9.80;99.90;;;9.65;nan;100334.88;4975775;28;20639;-66
2022/11/08 04:48:41;;;;;;;0.60;0.53;;;9.70;99.90;;;9.71;nan;100331.84;4970833;28;20639;-67
2022/11/08 04:51:17;;;;;;;1.90;1.33;;;9.60;99.90;;;9.80;nan;100320.72;4970164;28;20683;-66
2022/11/08 04:53:45;;;;;;;2.17;1.57;;;9.60;99.90;;;9.76;nan;100329.72;4963188;28;20701;-66
2022/11/08 04:56:18;;;;;;;1.30;1.27;;;9.60;99.90;;;9.70;nan;100324.97;4970934;28;20631;-66
2022/11/08 04:58:49;;;;;;;3.53;1.13;;;9.60;99.90;;;9.75;nan;100322.88;4970518;28;20627;-67
2022/11/08 05:01:22;;;;;;;0.97;0.97;;;9.60;99.90;;;9.82;nan;100324.06;4970657;28;20663;-65
2022/11/08 05:03:52;;;;;;;4.30;1.50;;;9.70;99.90;;;9.80;nan;100313.75;4972071;28;20634;-68
2022/11/08 05:06:30;;;;;;;2.50;2.07;;;9.70;99.90;;;9.74;nan;100310.75;4971497;28;20642;-66
2022/11/08 05:08:58;;;;;;;1.00;0.90;;;9.60;99.90;;;9.70;nan;100315.38;4971142;28;20627;-66
2022/11/08 05:11:28;;;;;;;1.73;1.50;;;9.60;99.90;;;9.73;nan;100309.13;4951860;28;20689;-66
2022/11/08 05:13:56;;;;;;;1.10;1.00;;;9.60;99.90;;;9.74;nan;100311.59;4982188;28;20632;-66
2022/11/08 05:16:27;;;;;;;2.80;1.70;;;9.60;99.90;;;9.70;nan;100298.91;4969983;28;20623;-65
2022/11/08 05:18:55;;;;;;;1.90;1.50;;;9.60;99.90;;;9.67;nan;100294.75;4937618;28;21166;-67
2022/11/08 05:24:11;;;;;;;2.33;2.13;;;9.60;99.90;;;9.70;nan;100306.72;4971353;28;21237;-65
2022/11/08 05:26:42;;;;;;;5.57;1.30;;;9.60;99.90;;;9.69;nan;100292.88;4984825;28;20642;-66
2022/11/08 05:29:09;;;;;;;6.03;2.27;;;9.60;99.90;;;9.80;nan;100295.50;4970095;28;20649;-65
2022/11/08 05:31:37;;;;;;;7.00;2.30;;;9.60;99.90;;;9.82;nan;100303.22;4959825;28;20671;-66
2022/11/08 05:34:06;;;;;;;2.30;2.10;;;9.60;99.90;;;9.76;nan;100301.06;4969216;28;20627;-67
2022/11/08 05:36:33;;;;;;;2.67;2.47;;;9.60;99.90;;;9.73;nan;100303.91;4974184;28;20623;-67
2022/11/08 05:39:00;;;;;;;2.07;1.97;;;9.60;99.90;;;9.85;nan;100293.41;4974842;28;20709;-67
2022/11/08 05:41:27;;;;;;;1.97;1.87;;;9.60;99.90;;;9.79;nan;100293.03;4974080;28;20673;-66
2022/11/08 05:43:54;;;;;;;3.90;2.07;;;9.60;99.90;;;9.65;nan;100288.81;4956007;28;20693;-65
2022/11/08 05:46:23;;;;;;;3.20;1.67;;;9.60;99.90;;;9.64;nan;100286.34;4972192;28;20644;-66
2022/11/08 05:48:50;;;;;;;2.73;2.00;;;9.60;99.90;;;9.74;nan;100289.91;4966789;28;20643;-66
2022/11/08 05:51:18;;;;;;;2.83;1.77;;;9.50;99.90;;;9.75;nan;100283.78;4973034;28;20683;-68
2022/11/08 05:53:47;;;;;;;1.50;1.30;;;9.50;99.90;;;9.78;nan;100278.31;4974037;28;20635;-65
2022/11/08 05:56:14;;;;;;;1.90;1.80;;;9.60;99.90;;;9.94;nan;100284.91;4957243;28;21210;-65
2022/11/08 05:58:41;;;;;;;2.30;2.10;;;9.70;99.90;;;9.75;nan;100279.38;4974451;28;20607;-65
2022/11/08 06:01:12;;;;;;;1.27;1.27;;;9.60;99.90;;;9.77;nan;100281.91;4972711;28;20667;-65
2022/11/08 06:03:39;;;;;;;1.57;1.57;;;9.60;99.90;;;9.88;nan;100274.94;4981979;28;20681;-67
2022/11/08 06:06:10;;;;;;;1.70;1.60;;;9.70;99.90;;;9.93;nan;100270.22;4972302;28;20649;-66
2022/11/08 06:08:38;;;;;;;1.80;1.70;;;9.70;99.90;;;9.71;nan;100259.72;4956409;28;20635;-65
2022/11/08 06:11:10;;;;;;;1.77;1.67;;;9.60;99.90;;;9.85;nan;100262.13;4933424;29;20706;-67
2022/11/08 06:13:38;;;;;;;1.50;1.40;;;9.60;99.90;;;9.86;nan;100265.59;4955047;28;20698;-67
2022/11/08 06:16:11;;;;;;;1.87;1.67;;;9.70;99.90;;;9.90;nan;100272.22;4959652;28;20632;-65
2022/11/08 06:18:39;;;;;;;1.63;1.53;;;9.70;99.90;;;9.88;nan;100276.72;4990235;28;20634;-65
2022/11/08 06:21:10;;;;;;;1.37;1.30;;;9.70;99.90;;;9.88;nan;100276.72;4987725;28;20929;-65
2022/11/08 06:23:37;;;;;;;1.87;1.50;;;9.70;99.90;;;9.86;nan;100283.81;4984944;28;20696;-65
2022/11/08 06:26:04;;;;;;;1.50;1.40;;;9.70;99.90;;;9.77;nan;100287.09;4966341;28;20643;-65
2022/11/08 06:28:31;;;;;;;1.00;1.00;;;9.70;99.90;;;9.87;nan;100295.91;4972166;28;21023;-65
2022/11/08 06:31:00;;;;;;;1.50;1.40;;;9.80;99.90;;;9.81;nan;100296.34;4972784;28;20664;-66
2022/11/08 06:33:28;;;;;;;1.07;1.07;;;9.70;99.90;;;9.92;nan;100299.00;4972256;28;20631;-67
2022/11/08 06:35:55;;;;;;;1.97;1.50;;;9.70;99.90;;;9.84;nan;100298.72;4977756;28;20637;-66
2022/11/08 06:38:22;;;;;;;1.70;1.60;;;9.70;99.90;;;9.78;nan;100296.56;4990262;28;20626;-66
2022/11/08 06:40:49;;;;;;;1.50;1.47;;;9.70;99.90;;;9.64;nan;100291.56;4990857;28;20661;-65
2022/11/08 06:43:16;;;;;;;2.27;2.10;;;9.60;99.90;;;9.75;nan;100289.00;4979550;28;20637;-66
2022/11/08 06:45:46;;;;;;;3.23;2.13;;;9.70;99.90;;;9.78;nan;100294.81;4976442;28;20694;-65
2022/11/08 06:48:13;;;;;;;1.93;1.77;;;9.60;99.90;;;9.86;nan;100295.06;4993038;28;20654;-66
2022/11/08 06:50:41;;;;;;;4.37;2.93;;;9.70;99.90;;;9.88;nan;100295.78;4988687;28;20725;-66
2022/11/08 06:53:11;;;;;;;2.70;1.93;;;9.70;99.90;;;9.90;nan;100295.69;4970587;28;20646;-65
2022/11/08 06:55:39;;;;;;;2.07;1.90;;;9.70;99.90;;;9.99;nan;100289.75;4983348;28;21180;-65
2022/11/08 06:58:06;;;;;;;2.30;1.27;;;9.80;99.90;;;9.97;nan;100294.25;4991955;28;20617;-65
2022/11/08 07:00:33;;;;;;;0.93;0.90;;;9.90;99.90;;;9.83;nan;100290.09;4974383;28;20717;-65
2022/11/08 07:03:02;;;;;;;1.33;1.03;;;9.80;99.90;;;10.10;nan;100293.28;4972830;28;20629;-66
2022/11/08 07:05:32;;;;;;;2.67;2.03;;;9.80;99.90;;;10.13;nan;100300.03;4972646;28;20643;-65
2022/11/08 07:08:00;;;;;;;1.70;1.33;;;9.90;99.90;;;10.24;nan;100305.28;4972976;28;21008;-63
2022/11/08 07:10:30;;;;;;;1.73;1.37;;;10.00;99.90;;;10.29;nan;100295.31;4972395;28;20667;-65
2022/11/08 07:13:03;;;;;;;1.00;1.00;;;10.10;99.90;;;10.57;nan;100297.47;4952899;28;21294;-65
2022/11/08 07:15:31;;;;;;;2.03;1.57;;;10.20;99.90;;;10.56;nan;100290.59;4974399;28;20639;-65
2022/11/08 07:18:04;;;;;;;1.30;1.20;;;10.40;99.90;;;10.60;nan;100292.03;4985801;28;20631;-64
2022/11/08 07:20:31;;;;;;;3.07;1.60;;;10.40;99.90;;;10.80;nan;100298.28;4978925;28;20651;-65
2022/11/08 07:22:59;;;;;;;1.90;1.80;;;10.40;99.90;;;10.78;nan;100293.19;4971741;28;22046;-67
2022/11/08 07:25:27;;;;;;;2.20;2.03;;;10.40;99.90;;;10.63;nan;100285.72;4972193;28;20651;-66
2022/11/08 07:27:59;;;;;;;1.80;1.70;;;10.40;99.90;;;10.55;nan;100291.53;4954104;28;20627;-65
2022/11/08 07:30:27;;;;;;;1.97;1.77;;;10.30;99.90;;;10.63;nan;100298.78;4971605;28;20663;-65
2022/11/08 07:32:55;;;;;;;1.57;1.43;;;10.40;99.90;;;10.57;nan;100294.03;4972077;28;20672;-66
2022/11/08 07:35:23;;;;;;;1.00;0.87;;;10.30;99.90;;;10.64;nan;100301.28;4971814;28;20635;-65
2022/11/08 07:37:53;;;;;;;1.50;1.40;;;10.40;99.90;;;10.62;nan;100304.94;4972545;28;20643;-66
2022/11/08 07:40:20;;;;;;;1.37;1.13;;;10.40;99.90;;;10.38;nan;100297.22;4978623;28;20670;-65
2022/11/08 07:42:47;;;;;;;2.00;1.77;;;10.30;99.90;;;10.53;nan;100296.06;4980223;28;20642;-66
2022/11/08 07:45:34;;;;;;;1.60;1.60;;;10.30;99.90;;;10.48;nan;100303.38;4971882;28;20686;-65
2022/11/08 07:48:05;;;;;;;1.50;1.40;;;10.30;99.90;;;10.53;nan;100303.03;4970120;28;20643;-65
2022/11/08 07:50:38;;;;;;;1.70;1.60;;;10.30;99.90;;;10.55;nan;100309.81;4995710;23;20746;-68
2022/11/08 07:53:06;;;;;;;2.13;1.53;;;10.30;99.90;;;10.59;nan;100303.41;5010132;28;20661;-69
2022/11/08 07:55:36;;;;;;;1.80;1.70;;;10.40;99.90;;;10.64;nan;100308.28;5032169;28;20636;-65
2022/11/08 07:58:03;;;;;;;2.00;1.90;;;10.40;99.90;;;10.74;nan;100304.00;5035927;28;20639;-65
2022/11/08 08:00:35;;;;;;;2.67;2.47;;;10.40;99.90;;;11.00;nan;100317.63;5039592;28;20660;-65
2022/11/08 08:03:03;;;;;;;4.30;3.17;;;10.50;99.90;;;11.35;nan;100320.91;5038067;28;20702;-66
2022/11/08 08:05:35;;;;;;;3.63;2.50;;;10.70;99.90;;;11.57;nan;100328.66;5007770;28;21011;-66
2022/11/08 08:08:02;;;;;;;3.17;2.90;;;10.90;99.90;;;11.73;nan;100331.72;5013524;28;20694;-66
2022/11/08 08:10:31;;;;;;;3.77;2.30;;;11.00;99.90;;;11.75;nan;100324.59;5028066;28;20730;-66
2022/11/08 08:12:58;;;;;;;3.57;2.93;;;11.20;99.90;;;11.62;nan;100318.66;5017286;28;20766;-67
2022/11/08 08:15:25;;;;;;;2.97;2.33;;;11.20;99.90;;;11.50;nan;100315.25;5030362;28;20986;-66
2022/11/08 08:17:53;;;;;;;3.03;2.33;;;11.20;99.90;;;11.28;nan;100323.16;5029919;28;20629;-66
2022/11/08 08:20:20;;;;;;;2.07;1.87;;;11.10;99.90;;;11.45;nan;100321.81;5029451;28;20653;-66
2022/11/08 08:22:49;;;;;;;3.47;2.20;;;11.10;99.90;;;11.50;nan;100317.88;5033969;28;21188;-65
2022/11/08 08:25:18;;;;;;;1.87;1.77;;;11.10;99.90;;;11.75;nan;100332.44;5010276;28;20639;-66
2022/11/08 08:27:53;;;;;;;1.73;1.63;;;11.20;99.90;;;11.97;nan;100331.50;5040661;28;20632;-66
2022/11/08 08:30:23;;;;;;;2.60;2.40;;;11.30;99.90;;;12.15;nan;100328.19;5000828;28;20672;-67
2022/11/08 08:32:50;;;;;;;1.63;1.53;;;11.50;99.90;;;12.30;nan;100336.56;5029307;28;21092;-67
2022/11/08 08:35:35;;;;;;;2.60;2.40;;;11.60;99.90;;;12.65;nan;100344.06;5038792;28;20636;-68
2022/11/08 08:38:04;;;;;;;3.17;2.50;;;11.80;99.90;;;13.05;nan;100340.50;5031235;28;20636;-66
2022/11/08 08:40:32;;;;;;;6.67;2.87;;;12.00;99.90;;;13.61;nan;100348.66;5027850;28;20657;-67
2022/11/08 08:43:00;;;;;;;2.70;2.50;;;12.30;99.90;;;14.35;nan;100351.56;5021799;28;20999;-66
2022/11/08 08:45:27;;;;;;;1.93;1.73;;;12.80;99.90;;;14.78;nan;100351.84;5012255;28;20643;-66
2022/11/08 08:47:55;;;;;;;6.43;2.17;;;13.20;99.90;;;16.20;nan;100336.16;5028905;28;20698;-66
2022/11/08 08:50:24;;;;;;;2.83;2.17;;;13.90;99.90;;;20.97;nan;100335.09;5019088;28;20665;-67
2022/11/08 08:52:51;;;;;;;3.00;2.70;;;16.40;99.90;;;23.57;nan;100336.66;5027239;28;21042;-66
2022/11/08 08:55:18;;;;;;;6.37;2.90;;;19.10;99.90;;;24.05;nan;100343.50;5032018;28;20634;-66
2022/11/08 08:57:47;;;;;;;2.60;2.40;;;20.40;99.90;;;21.31;nan;100334.53;5032693;28;20644;-66
2022/11/08 09:00:15;;;;;;;4.90;2.63;;;19.80;99.50;;;18.19;nan;100337.22;5016494;28;20683;-66
2022/11/08 09:03:04;;;;;;;2.17;2.00;;;18.20;99.90;;;17.25;nan;100333.31;5032854;28;20617;-67
2022/11/08 09:05:32;;;;;;;2.93;2.27;;;17.00;99.90;;;15.98;nan;100344.53;5037567;28;20608;-69
2022/11/08 09:07:59;;;;;;;4.80;2.00;;;16.00;99.90;;;15.69;nan;100338.69;5039984;28;21285;-63
2022/11/08 09:10:27;;;;;;;2.20;2.10;;;15.50;99.90;;;17.37;nan;100334.66;5025217;28;20649;-65
2022/11/08 09:12:54;;;;;;;1.30;1.20;;;16.20;99.90;;;20.06;nan;100332.66;5029123;28;20672;-63
2022/11/08 09:15:22;;;;;;;3.77;1.80;;;17.50;99.90;;;21.33;nan;100327.19;5016249;28;21180;-65
2022/11/08 09:17:49;;;;;;;2.60;2.40;;;18.70;99.90;;;23.60;nan;100336.22;5023820;28;21282;-66
2022/11/08 09:20:15;;;;;;;2.20;2.10;;;20.20;99.90;;;24.89;nan;100344.50;5024365;28;20752;-67
2022/11/08 09:22:42;;;;;;;4.73;2.43;;;21.40;97.30;;;26.13;nan;100340.34;5028611;28;21056;-68
2022/11/08 09:25:10;;;;;;;2.43;2.23;;;22.40;95.10;;;27.80;nan;100333.56;5029588;28;20636;-66
2022/11/08 09:27:36;;;;;;;2.03;1.93;;;23.70;91.70;;;29.60;nan;100335.22;5024762;28;20678;-64
2022/11/08 09:30:05;;;;;;;2.30;2.20;;;25.00;86.00;;;28.17;nan;100332.38;5026493;28;20656;-64
2022/11/08 09:32:32;;;;;;;2.73;2.33;;;25.20;79.20;;;28.88;nan;100334.81;5022850;28;20664;-66
2022/11/08 09:35:19;;;;;;;4.03;2.40;;;25.80;76.00;;;28.66;nan;100325.75;5014974;28;20742;-66
2022/11/08 09:37:46;;;;;;;2.27;2.17;;;26.00;73.10;;;29.34;nan;100317.78;5023671;28;20630;-66
2022/11/08 09:40:20;;;;;;;2.80;2.13;;;26.40;70.80;;;30.20;nan;100313.94;5028204;28;20730;-65
2022/11/08 09:43:24;;;;;;;2.13;1.93;;;26.50;70.60;;;29.78;nan;100313.50;5024871;28;21045;-67
2022/11/08 09:45:54;;;;;;;2.30;2.07;;;26.90;68.10;;;30.13;nan;100313.28;5020859;28;21061;-68
2022/11/08 09:48:33;;;;;;;2.17;1.93;;;27.30;65.80;;;29.90;nan;100316.91;5028805;28;20640;-67
2022/11/08 09:51:14;;;;;;;5.23;2.23;;;27.10;65.20;;;29.31;nan;100322.81;5010439;28;20656;-66
2022/11/08 09:54:03;;;;;;;3.13;2.20;;;27.10;64.60;;;29.89;nan;100320.69;5028693;28;20686;-65
2022/11/08 09:56:34;;;;;;;2.43;2.23;;;27.10;64.20;;;28.52;nan;100318.97;5014286;28;21211;-65
2022/11/08 09:59:19;;;;;;;1.70;1.60;;;26.90;63.70;;;29.63;nan;100313.19;5024630;28;21193;-66
2022/11/08 10:01:48;;;;;;;2.27;1.90;;;26.90;64.20;;;28.88;nan;100317.88;5027126;28;20657;-68
2022/11/08 10:04:19;;;;;;;3.23;2.90;;;27.20;62.90;;;30.19;nan;100309.59;5020943;28;20656;-66
2022/11/08 10:07:40;;;;;;;3.83;3.23;;;27.50;62.30;;;32.38;nan;100318.88;5029745;28;20631;-66
2022/11/08 10:10:56;;;;;;;2.73;2.37;;;28.60;61.10;;;29.49;nan;100311.88;5006825;28;20657;-66
2022/11/08 10:14:16;;;;;;;1.97;1.87;;;27.80;60.40;;;31.33;nan;100314.94;5030350;28;21319;-66
2022/11/08 10:17:21;;;;;;;2.00;1.90;;;28.30;60.00;;;30.76;nan;100302.09;5004013;28;20631;-65
2022/11/08 10:20:05;;;;;;;2.47;1.97;;;28.20;59.30;;;25.20;nan;100293.84;5031141;28;20710;-66
2022/11/08 10:22:53;;;;;;;2.10;2.00;;;25.30;62.60;;;21.60;nan;100292.78;5043259;28;21016;-65
2022/11/08 10:25:31;;;;;;;2.23;2.03;;;22.90;67.50;;;19.04;nan;100289.81;5030758;28;20645;-65
2022/11/08 10:28:00;;;;;;;1.43;1.33;;;20.40;73.00;;;18.19;nan;100284.41;5025883;28;21156;-66
2022/11/08 10:30:39;;;;;;;2.10;1.27;;;18.90;78.90;;;16.75;nan;100281.38;5033871;28;20654;-65
2022/11/08 10:33:15;;;;;;;5.23;1.37;;;17.70;84.40;;;16.66;nan;100281.47;4995771;28;20653;-65
2022/11/08 10:35:51;;;;;;;1.43;1.43;;;16.90;90.60;;;16.21;nan;100284.31;5019868;28;20992;-63
2022/11/08 10:38:34;;;;;;;1.13;1.07;;;16.40;94.30;;;15.83;nan;100282.06;5015120;28;20608;-64
2022/11/08 10:41:32;;;;;;;2.13;1.80;;;16.00;98.30;;;15.80;nan;100277.13;5014030;28;20666;-64
2022/11/08 10:44:07;;;;;;;1.73;1.63;;;15.70;99.90;;;16.13;nan;100281.66;5005745;28;20702;-64
2022/11/08 10:46:56;;;;;;;3.60;1.90;;;15.70;99.90;;;16.09;nan;100289.03;5014797;28;20640;-66
2022/11/08 10:49:37;;;;;;;2.30;1.60;;;15.60;99.90;;;15.96;nan;100288.59;5037385;28;21212;-66
2022/11/08 10:52:43;;;;;;;1.57;1.50;;;15.60;99.90;;;15.78;nan;100285.16;5012461;28;21096;-64
2022/11/08 10:55:32;;;;;;;1.60;1.50;;;15.40;99.90;;;15.92;nan;100286.41;5017061;28;20645;-62
2022/11/08 10:57:59;;;;;;;2.00;1.60;;;15.50;99.90;;;15.64;nan;100282.22;5031501;28;20633;-61
2022/11/08 11:00:31;;;;;;;1.80;1.70;;;15.40;99.90;;;15.67;nan;100289.84;5022745;28;21074;-63
2022/11/08 11:03:08;;;;;;;1.60;1.50;;;15.30;99.90;;;15.74;nan;100293.53;5025486;28;20629;-63
2022/11/08 11:05:54;;;;;;;1.50;1.33;;;15.30;99.90;;;15.57;nan;100284.63;5027116;28;20632;-63
2022/11/08 11:08:21;;;;;;;0.60;0.60;;;15.20;99.90;;;15.64;nan;100279.59;5006375;28;20684;-63